createdAt,value
2023-04-22T00:00:35.814Z,16.42
2023-04-22T00:03:03.801Z,16.39
2023-04-22T00:05:30.643Z,16.24
2023-04-22T00:07:57.348Z,16.55
2023-04-22T00:10:23.992Z,16.37
2023-04-22T00:12:51.287Z,16.48
2023-04-22T00:15:23.959Z,16.50
2023-04-22T00:17:50.518Z,16.09
2023-04-22T00:20:17.898Z,15.75
2023-04-22T00:22:44.562Z,15.35
2023-04-22T00:25:11.161Z,15.63
2023-04-22T00:27:37.734Z,15.62
2023-04-22T00:30:04.834Z,15.82
2023-04-22T00:32:31.327Z,16.19
2023-04-22T00:34:58.018Z,16.35
2023-04-22T00:37:24.889Z,16.27
2023-04-22T00:39:51.303Z,16.09
2023-04-22T00:42:18.109Z,16.24
2023-04-22T00:44:47.203Z,15.72
2023-04-22T00:47:13.765Z,15.95
2023-04-22T00:49:43.868Z,15.86
2023-04-22T00:52:11.417Z,15.56
2023-04-22T00:54:38.217Z,15.47
2023-04-22T00:57:05.612Z,15.38
2023-04-22T00:59:32.130Z,15.21
2023-04-22T01:01:59.385Z,15.25
2023-04-22T01:04:31.162Z,15.17
2023-04-22T01:06:57.684Z,14.69
2023-04-22T01:09:26.271Z,14.89
2023-04-22T01:11:53.200Z,15.22
2023-04-22T01:14:19.542Z,14.67
2023-04-22T01:16:46.756Z,14.77
2023-04-22T01:19:13.648Z,14.84
2023-04-22T01:21:40.988Z,14.80
2023-04-22T01:24:08.691Z,14.60
2023-04-22T01:26:35.208Z,15.01
2023-04-22T01:29:02.128Z,15.09
2023-04-22T01:31:29.156Z,15.27
2023-04-22T01:33:56.271Z,15.40
2023-04-22T01:36:22.657Z,15.61
2023-04-22T01:38:49.669Z,15.32
2023-04-22T01:41:16.613Z,15.40
2023-04-22T01:43:43.164Z,15.06
2023-04-22T01:46:09.777Z,15.16
2023-04-22T01:48:36.620Z,15.28
2023-04-22T01:51:03.780Z,15.39
2023-04-22T01:53:30.378Z,15.66
2023-04-22T01:55:56.899Z,15.97
2023-04-22T01:58:23.476Z,15.87
2023-04-22T02:00:49.906Z,16.11
2023-04-22T02:03:16.430Z,15.50
2023-04-22T02:05:42.988Z,15.29
2023-04-22T02:08:10.320Z,14.80
2023-04-22T02:10:36.983Z,14.35
2023-04-22T02:13:03.509Z,14.90
2023-04-22T02:15:30.687Z,15.01
2023-04-22T02:17:57.225Z,15.21
2023-04-22T02:20:23.715Z,15.15
2023-04-22T02:22:50.901Z,14.46
2023-04-22T02:25:18.123Z,14.72
2023-04-22T02:27:44.619Z,14.17
2023-04-22T02:30:11.343Z,14.08
2023-04-22T02:32:39.023Z,14.23
2023-04-22T02:35:05.825Z,14.39
2023-04-22T02:37:32.279Z,14.06
2023-04-22T02:39:58.785Z,13.99
2023-04-22T02:42:25.244Z,14.11
2023-04-22T02:44:51.724Z,14.17
2023-04-22T02:47:18.202Z,14.31
2023-04-22T02:49:45.108Z,14.16
2023-04-22T02:52:11.906Z,14.24
2023-04-22T02:54:38.396Z,14.17
2023-04-22T02:57:05.313Z,14.31
2023-04-22T02:59:32.183Z,14.10
2023-04-22T03:02:18.402Z,13.89
2023-04-22T03:04:45.559Z,14.38
2023-04-22T03:07:12.133Z,14.54
2023-04-22T03:09:39.008Z,14.39
2023-04-22T03:12:05.796Z,14.37
2023-04-22T03:14:32.386Z,14.40
2023-04-22T03:17:01.072Z,14.57
2023-04-22T03:19:28.270Z,13.84
2023-04-22T03:21:56.542Z,14.53
2023-04-22T03:24:23.250Z,14.59
2023-04-22T03:26:58.041Z,14.57
2023-04-22T03:29:24.580Z,14.96
2023-04-22T03:32:08.633Z,14.93
2023-04-22T03:34:37.080Z,15.25
2023-04-22T03:37:04.186Z,15.67
2023-04-22T03:39:31.002Z,15.10
2023-04-22T03:41:59.874Z,15.45
2023-04-22T03:44:27.286Z,14.74
2023-04-22T03:46:56.252Z,15.97
2023-04-22T03:49:23.281Z,15.95
2023-04-22T03:51:50.285Z,15.97
2023-04-22T03:54:18.054Z,15.72
2023-04-22T03:56:44.796Z,15.17
2023-04-22T03:59:19.844Z,15.87
2023-04-22T04:01:47.463Z,15.58
2023-04-22T04:04:33.706Z,15.75
2023-04-22T04:07:00.715Z,16.22
2023-04-22T04:09:28.667Z,15.70
2023-04-22T04:11:55.465Z,15.97
2023-04-22T04:14:27.300Z,15.75
2023-04-22T04:16:54.050Z,16.20
2023-04-22T04:19:20.888Z,16.17
2023-04-22T04:21:47.738Z,16.11
2023-04-22T04:24:14.781Z,16.03
2023-04-22T04:26:41.769Z,16.27
2023-04-22T04:29:11.124Z,16.26
2023-04-22T04:31:37.858Z,16.21
2023-04-22T04:34:04.620Z,15.33
2023-04-22T04:36:34.051Z,15.96
2023-04-22T04:39:00.743Z,15.60
2023-04-22T04:41:33.637Z,15.92
2023-04-22T04:44:00.794Z,15.84
2023-04-22T04:46:29.852Z,15.83
2023-04-22T04:49:03.025Z,15.91
2023-04-22T04:51:34.336Z,15.93
2023-04-22T04:54:01.591Z,16.00
2023-04-22T04:56:35.417Z,15.71
2023-04-22T04:59:02.186Z,16.54
2023-04-22T05:01:34.179Z,16.35
2023-04-22T05:04:01.799Z,16.32
2023-04-22T05:06:28.914Z,16.27
2023-04-22T05:08:55.616Z,16.68
2023-04-22T05:11:24.007Z,16.86
2023-04-22T05:13:50.860Z,16.53
2023-04-22T05:16:17.484Z,16.86
2023-04-22T05:18:44.620Z,16.53
2023-04-22T05:21:11.643Z,16.89
2023-04-22T05:23:38.213Z,17.08
2023-04-22T05:26:04.830Z,16.94
2023-04-22T05:28:31.340Z,17.23
2023-04-22T05:30:58.588Z,17.89
2023-04-22T05:33:25.354Z,18.10
2023-04-22T05:35:52.457Z,18.54
2023-04-22T05:38:19.241Z,18.09
2023-04-22T05:40:46.619Z,18.60
2023-04-22T05:43:13.468Z,18.30
2023-04-22T05:45:56.050Z,18.85
2023-04-22T05:48:25.810Z,19.10
2023-04-22T05:50:52.719Z,19.38
2023-04-22T05:53:19.845Z,18.93
2023-04-22T05:55:46.836Z,18.66
2023-04-22T05:58:13.526Z,18.35
2023-04-22T06:00:40.419Z,18.76
2023-04-22T06:03:07.096Z,19.05
2023-04-22T06:05:33.641Z,18.54
2023-04-22T06:08:16.971Z,19.69
2023-04-22T06:10:43.398Z,19.67
2023-04-22T06:13:11.042Z,19.50
2023-04-22T06:15:38.174Z,19.98
2023-04-22T06:18:06.703Z,20.16
2023-04-22T06:20:33.591Z,20.01
2023-04-22T06:23:00.494Z,20.88
2023-04-22T06:25:42.084Z,21.13
2023-04-22T06:28:09.942Z,21.30
2023-04-22T06:30:57.833Z,21.11
2023-04-22T06:33:24.541Z,20.97
2023-04-22T06:35:52.641Z,21.89
2023-04-22T06:38:21.792Z,20.69
2023-04-22T06:40:48.756Z,20.87
2023-04-22T06:43:16.475Z,21.34
2023-04-22T06:45:56.447Z,21.98
2023-04-22T06:48:23.195Z,22.16
2023-04-22T06:50:51.200Z,22.62
2023-04-22T06:53:18.732Z,22.81
2023-04-22T06:55:46.849Z,22.87
2023-04-22T06:58:14.244Z,21.92
2023-04-22T07:00:45.815Z,22.71
2023-04-22T07:03:12.924Z,22.86
2023-04-22T07:05:40.970Z,23.76
2023-04-22T07:08:07.972Z,23.87
2023-04-22T07:10:36.123Z,23.05
2023-04-22T07:13:23.166Z,23.38
2023-04-22T07:15:50.822Z,23.24
2023-04-22T07:18:18.758Z,24.11
2023-04-22T07:20:48.357Z,24.26
2023-04-22T07:23:15.442Z,22.69
2023-04-22T07:25:42.304Z,22.31
2023-04-22T07:28:09.436Z,23.63
2023-04-22T07:30:36.329Z,24.58
2023-04-22T07:33:03.340Z,24.37
2023-04-22T07:35:31.147Z,24.53
2023-04-22T07:37:59.616Z,23.33
2023-04-22T07:40:28.019Z,24.09
2023-04-22T07:43:13.165Z,25.05
2023-04-22T07:45:40.073Z,24.10
2023-04-22T07:48:09.200Z,24.35
2023-04-22T07:50:38.589Z,24.45
2023-04-22T07:53:07.762Z,25.28
2023-04-22T07:55:35.889Z,25.68
2023-04-22T07:58:06.952Z,25.29
2023-04-22T08:00:35.288Z,24.44
2023-04-22T08:03:13.443Z,25.35
2023-04-22T08:05:44.903Z,26.44
2023-04-22T08:08:11.863Z,25.95
2023-04-22T08:10:42.177Z,26.75
2023-04-22T08:13:21.637Z,26.28
2023-04-22T08:15:48.647Z,25.88
2023-04-22T08:18:17.146Z,26.90
2023-04-22T08:20:45.662Z,25.66
2023-04-22T08:23:16.588Z,25.04
2023-04-22T08:25:45.320Z,25.80
2023-04-22T08:28:19.862Z,26.54
2023-04-22T08:30:48.362Z,26.03
2023-04-22T08:33:27.750Z,25.82
2023-04-22T08:35:54.775Z,26.26
2023-04-22T08:38:22.346Z,26.06
2023-04-22T08:40:51.496Z,26.32
2023-04-22T08:43:27.141Z,27.72
2023-04-22T08:45:53.843Z,28.14
2023-04-22T08:48:20.435Z,28.48
2023-04-22T08:50:49.434Z,29.29
2023-04-22T08:53:16.177Z,28.49
2023-04-22T08:55:45.898Z,28.27
2023-04-22T08:58:13.200Z,29.30
2023-04-22T09:00:45.053Z,28.85
2023-04-22T09:03:13.402Z,28.20
2023-04-22T09:05:41.429Z,28.54
2023-04-22T09:08:08.305Z,28.31
2023-04-22T09:10:39.106Z,28.54
2023-04-22T09:13:07.363Z,28.74
2023-04-22T09:15:34.675Z,28.88
2023-04-22T09:18:03.362Z,29.22
2023-04-22T09:20:44.019Z,29.31
2023-04-22T09:23:13.259Z,29.36
2023-04-22T09:25:41.482Z,29.63
2023-04-22T09:28:12.702Z,29.41
2023-04-22T09:30:42.561Z,29.36
2023-04-22T09:33:10.983Z,29.01
2023-04-22T09:35:40.090Z,28.45
2023-04-22T09:38:08.836Z,28.44
2023-04-22T09:40:38.463Z,28.76
2023-04-22T09:43:08.195Z,28.17
2023-04-22T09:45:46.295Z,28.85
2023-04-22T09:48:13.656Z,28.61
2023-04-22T09:50:44.586Z,28.76
2023-04-22T09:53:12.547Z,29.55
2023-04-22T09:55:43.299Z,29.96
2023-04-22T09:58:11.597Z,29.14
2023-04-22T10:00:42.041Z,29.39
2023-04-22T10:03:11.207Z,28.53
2023-04-22T10:05:46.932Z,29.08
2023-04-22T10:08:26.459Z,29.00
2023-04-22T10:10:54.335Z,29.62
2023-04-22T10:13:21.092Z,30.45
2023-04-22T10:15:50.637Z,30.11
2023-04-22T10:18:21.516Z,29.67
2023-04-22T10:20:49.609Z,29.84
2023-04-22T10:23:24.467Z,29.63
2023-04-22T10:25:56.401Z,30.37
2023-04-22T10:28:24.882Z,31.31
2023-04-22T10:30:53.339Z,30.83
2023-04-22T10:33:25.570Z,29.52
2023-04-22T10:36:23.414Z,29.91
2023-04-22T10:38:50.944Z,29.85
2023-04-22T10:41:23.124Z,30.34
2023-04-22T10:43:59.086Z,30.58
2023-04-22T10:46:35.701Z,30.04
2023-04-22T10:49:09.415Z,31.06
2023-04-22T10:52:04.266Z,31.48
2023-04-22T10:54:36.426Z,30.82
2023-04-22T10:57:10.498Z,30.51
2023-04-22T10:59:48.761Z,30.90
2023-04-22T11:02:17.538Z,30.69
2023-04-22T11:04:45.433Z,30.35
2023-04-22T11:07:27.062Z,30.88
2023-04-22T11:10:10.505Z,31.79
2023-04-22T11:12:40.532Z,31.56
2023-04-22T11:15:08.784Z,32.45
2023-04-22T11:17:38.452Z,31.72
2023-04-22T11:20:12.965Z,31.16
2023-04-22T11:22:44.670Z,31.76
2023-04-22T11:25:12.173Z,32.14
2023-04-22T11:27:47.721Z,32.03
2023-04-22T11:30:24.559Z,31.85
2023-04-22T11:32:52.846Z,30.94
2023-04-22T11:35:19.885Z,31.30
2023-04-22T11:37:48.095Z,31.40
2023-04-22T11:40:30.913Z,31.46
2023-04-22T11:43:01.995Z,32.24
2023-04-22T11:45:30.867Z,33.13
2023-04-22T11:48:06.228Z,32.68
2023-04-22T11:50:37.304Z,32.20
2023-04-22T11:53:23.088Z,32.17
2023-04-22T11:55:53.529Z,31.54
2023-04-22T11:58:39.621Z,32.05
2023-04-22T12:01:07.608Z,32.12
2023-04-22T12:03:35.498Z,31.32
2023-04-22T12:06:05.509Z,31.35
2023-04-22T12:08:45.270Z,32.77
2023-04-22T12:11:13.260Z,32.85
2023-04-22T12:13:41.857Z,32.73
2023-04-22T12:16:09.187Z,33.30
2023-04-22T12:18:41.527Z,32.36
2023-04-22T12:21:09.806Z,32.32
2023-04-22T12:23:50.274Z,31.94
2023-04-22T12:26:26.527Z,32.50
2023-04-22T12:28:55.784Z,32.76
2023-04-22T12:31:25.149Z,32.82
2023-04-22T12:33:52.860Z,32.89
2023-04-22T12:36:23.435Z,33.70
2023-04-22T12:38:52.683Z,33.20
2023-04-22T12:41:19.738Z,33.12
2023-04-22T12:43:49.118Z,32.94
2023-04-22T12:46:17.239Z,31.36
2023-04-22T12:48:45.244Z,32.81
2023-04-22T12:51:13.956Z,32.62
2023-04-22T12:53:43.754Z,32.72
2023-04-22T12:56:11.885Z,33.46
2023-04-22T12:58:39.269Z,33.17
2023-04-22T13:01:20.040Z,32.46
2023-04-22T13:03:53.334Z,32.04
2023-04-22T13:06:23.549Z,32.57
2023-04-22T13:08:51.142Z,32.84
2023-04-22T13:11:28.962Z,31.99
2023-04-22T13:13:56.474Z,32.43
2023-04-22T13:16:24.628Z,31.84
2023-04-22T13:18:53.236Z,31.98
2023-04-22T13:21:20.936Z,31.65
2023-04-22T13:23:48.192Z,31.60
2023-04-22T13:26:15.654Z,32.32
2023-04-22T13:28:49.305Z,32.49
2023-04-22T13:31:17.752Z,30.53
2023-04-22T13:34:02.992Z,32.11
2023-04-22T13:36:30.623Z,32.46
2023-04-22T13:39:01.434Z,32.28
2023-04-22T13:41:29.675Z,32.19
2023-04-22T13:43:58.741Z,33.00
2023-04-22T13:46:34.129Z,33.18
2023-04-22T13:49:01.177Z,32.16
2023-04-22T13:51:28.748Z,32.34
2023-04-22T13:53:56.620Z,31.58
2023-04-22T13:56:42.813Z,32.19
2023-04-22T13:59:11.124Z,32.62
2023-04-22T14:01:38.831Z,32.50
2023-04-22T14:04:14.126Z,32.16
2023-04-22T14:06:42.628Z,31.06
2023-04-22T14:09:09.953Z,32.20
2023-04-22T14:11:40.526Z,32.32
2023-04-22T14:14:08.186Z,32.40
2023-04-22T14:16:37.884Z,32.31
2023-04-22T14:19:06.321Z,33.13
2023-04-22T14:21:37.362Z,32.99
2023-04-22T14:24:04.460Z,32.42
2023-04-22T14:26:32.853Z,33.27
2023-04-22T14:29:01.721Z,33.52
2023-04-22T14:31:29.754Z,33.02
2023-04-22T14:33:57.265Z,32.62
2023-04-22T14:36:25.551Z,32.46
2023-04-22T14:39:01.872Z,31.79
2023-04-22T14:41:29.349Z,32.55
2023-04-22T14:44:05.481Z,33.14
2023-04-22T14:46:32.814Z,32.14
2023-04-22T14:49:04.470Z,32.01
2023-04-22T14:51:32.710Z,32.14
2023-04-22T14:54:03.179Z,31.39
2023-04-22T14:56:31.102Z,31.80
2023-04-22T14:58:59.492Z,31.73
2023-04-22T15:01:27.428Z,31.67
2023-04-22T15:03:54.863Z,31.85
2023-04-22T15:06:24.716Z,31.49
2023-04-22T15:08:52.562Z,31.56
2023-04-22T15:11:19.838Z,32.34
2023-04-22T15:13:50.826Z,30.60
2023-04-22T15:16:18.519Z,31.63
2023-04-22T15:18:46.684Z,31.83
2023-04-22T15:21:14.406Z,31.69
2023-04-22T15:23:45.794Z,31.32
2023-04-22T15:26:16.148Z,31.03
2023-04-22T15:28:43.607Z,32.29
2023-04-22T15:31:11.834Z,32.57
2023-04-22T15:33:42.151Z,31.60
2023-04-22T15:36:10.280Z,32.12
2023-04-22T15:38:38.809Z,31.71
2023-04-22T15:41:06.910Z,31.18
2023-04-22T15:43:35.216Z,30.46
2023-04-22T15:46:10.183Z,31.21
2023-04-22T15:48:37.860Z,30.51
2023-04-22T15:51:08.018Z,30.14
2023-04-22T15:53:37.382Z,30.72
2023-04-22T15:56:04.965Z,29.94
2023-04-22T15:58:36.860Z,31.13
2023-04-22T16:01:17.886Z,31.64
2023-04-22T16:03:47.430Z,30.82
2023-04-22T16:06:15.633Z,31.02
2023-04-22T16:08:43.142Z,31.82
2023-04-22T16:11:11.287Z,32.01
2023-04-22T16:13:39.461Z,29.36
2023-04-22T16:16:07.313Z,30.27
2023-04-22T16:18:47.857Z,30.31
2023-04-22T16:21:15.035Z,29.93
2023-04-22T16:23:44.086Z,30.48
2023-04-22T16:26:12.544Z,29.93
2023-04-22T16:28:39.740Z,29.64
2023-04-22T16:31:09.368Z,30.08
2023-04-22T16:33:37.419Z,30.16
2023-04-22T16:36:06.457Z,30.00
2023-04-22T16:38:45.902Z,29.85
2023-04-22T16:41:12.705Z,29.53
2023-04-22T16:43:54.907Z,29.15
2023-04-22T16:46:22.448Z,29.65
2023-04-22T16:48:53.645Z,30.27
2023-04-22T16:51:20.741Z,29.51
2023-04-22T16:54:12.618Z,29.12
2023-04-22T16:56:39.480Z,29.45
2023-04-22T16:59:14.528Z,28.80
2023-04-22T17:01:42.145Z,29.17
2023-04-22T17:04:09.074Z,28.98
2023-04-22T17:06:43.208Z,29.15
2023-04-22T17:09:10.193Z,29.36
2023-04-22T17:11:37.280Z,28.87
2023-04-22T17:14:04.219Z,29.01
2023-04-22T17:16:33.008Z,28.57
2023-04-22T17:19:00.756Z,29.06
2023-04-22T17:21:29.088Z,28.65
2023-04-22T17:23:58.874Z,28.75
2023-04-22T17:26:26.433Z,28.94
2023-04-22T17:29:01.702Z,28.81
2023-04-22T17:31:29.260Z,28.83
2023-04-22T17:34:01.027Z,29.00
2023-04-22T17:36:28.397Z,28.94
2023-04-22T17:38:57.961Z,28.43
2023-04-22T17:41:27.999Z,28.52
2023-04-22T17:43:55.786Z,28.69
2023-04-22T17:46:32.498Z,28.56
2023-04-22T17:48:59.726Z,28.65
2023-04-22T17:51:29.128Z,28.15
2023-04-22T17:54:00.412Z,28.09
2023-04-22T17:56:31.724Z,27.87
2023-04-22T17:58:59.872Z,28.32
2023-04-22T18:01:29.931Z,27.78
2023-04-22T18:03:57.442Z,27.47
2023-04-22T18:06:25.098Z,27.28
2023-04-22T18:08:52.232Z,26.76
2023-04-22T18:11:20.655Z,27.35
2023-04-22T18:13:47.319Z,27.41
2023-04-22T18:16:15.379Z,27.91
2023-04-22T18:18:44.651Z,27.78
2023-04-22T18:21:16.726Z,27.15
2023-04-22T18:23:43.784Z,27.20
2023-04-22T18:26:11.379Z,27.17
2023-04-22T18:28:40.826Z,27.47
2023-04-22T18:31:08.342Z,27.38
2023-04-22T18:33:36.715Z,26.52
2023-04-22T18:36:04.265Z,27.01
2023-04-22T18:38:32.001Z,26.79
2023-04-22T18:40:59.491Z,26.98
2023-04-22T18:43:27.062Z,26.75
2023-04-22T18:45:53.978Z,26.81
2023-04-22T18:48:22.847Z,26.29
2023-04-22T18:50:50.808Z,26.74
2023-04-22T18:53:18.019Z,26.31
2023-04-22T18:55:45.299Z,26.39
2023-04-22T18:58:21.559Z,26.59
2023-04-22T19:00:49.013Z,26.29
2023-04-22T19:03:19.595Z,26.34
2023-04-22T19:05:47.616Z,26.13
2023-04-22T19:08:15.468Z,26.50
2023-04-22T19:10:43.915Z,26.15
2023-04-22T19:13:18.663Z,26.02
2023-04-22T19:15:56.650Z,25.82
2023-04-22T19:18:25.454Z,25.63
2023-04-22T19:20:55.259Z,25.44
2023-04-22T19:23:22.747Z,26.03
2023-04-22T19:25:53.268Z,25.82
2023-04-22T19:28:21.099Z,25.62
2023-04-22T19:30:49.878Z,25.65
2023-04-22T19:33:17.643Z,25.63
2023-04-22T19:35:45.248Z,25.80
2023-04-22T19:38:16.667Z,25.79
2023-04-22T19:40:44.436Z,25.72
2023-04-22T19:43:12.743Z,25.64
2023-04-22T19:45:41.586Z,25.68
2023-04-22T19:48:09.516Z,26.06
2023-04-22T19:50:37.975Z,25.60
2023-04-22T19:53:12.472Z,26.03
2023-04-22T19:55:40.677Z,25.71
2023-04-22T19:58:08.150Z,25.98
2023-04-22T20:00:35.836Z,25.85
2023-04-22T20:03:04.232Z,25.76
2023-04-22T20:05:31.492Z,25.30
2023-04-22T20:08:01.969Z,25.66
2023-04-22T20:10:33.522Z,25.63
2023-04-22T20:13:01.265Z,25.84
2023-04-22T20:15:28.947Z,26.04
2023-04-22T20:18:04.452Z,25.77
2023-04-22T20:20:32.477Z,25.72
2023-04-22T20:23:02.124Z,26.01
2023-04-22T20:25:31.754Z,25.87
2023-04-22T20:28:00.477Z,25.78
2023-04-22T20:30:28.305Z,25.80
2023-04-22T20:33:02.518Z,25.75
2023-04-22T20:35:30.320Z,25.40
2023-04-22T20:37:59.205Z,25.44
2023-04-22T20:40:28.013Z,24.85
2023-04-22T20:43:01.891Z,25.16
2023-04-22T20:45:30.927Z,25.18
2023-04-22T20:48:06.096Z,25.72
2023-04-22T20:50:34.118Z,25.59
2023-04-22T20:53:04.554Z,25.92
2023-04-22T20:55:32.743Z,26.49
2023-04-22T20:58:01.173Z,26.16
2023-04-22T21:00:29.080Z,25.55
2023-04-22T21:03:00.281Z,25.27
2023-04-22T21:05:29.000Z,25.26
2023-04-22T21:07:57.277Z,25.44
2023-04-22T21:10:24.409Z,24.73
2023-04-22T21:12:51.831Z,25.09
2023-04-22T21:15:19.493Z,24.68
2023-04-22T21:17:55.414Z,24.45
2023-04-22T21:20:24.534Z,24.80
2023-04-22T21:22:52.716Z,23.96
2023-04-22T21:25:22.470Z,24.88
2023-04-22T21:27:50.296Z,25.14
2023-04-22T21:30:38.352Z,25.21
2023-04-22T21:33:05.966Z,25.54
2023-04-22T21:35:33.743Z,25.08
2023-04-22T21:38:02.768Z,24.55
2023-04-22T21:40:30.650Z,24.52
2023-04-22T21:42:57.965Z,24.95
2023-04-22T21:45:27.872Z,25.22
2023-04-22T21:47:55.316Z,25.14
2023-04-22T21:50:23.571Z,24.97
2023-04-22T21:53:04.922Z,24.90
2023-04-22T21:55:32.456Z,25.10
2023-04-22T21:58:04.292Z,24.60
2023-04-22T22:00:32.348Z,25.32
2023-04-22T22:03:00.985Z,25.48
2023-04-22T22:05:30.009Z,25.49
2023-04-22T22:07:57.242Z,25.12
2023-04-22T22:10:24.920Z,25.34
2023-04-22T22:12:52.531Z,25.22
2023-04-22T22:15:19.979Z,25.24
2023-04-22T22:17:51.401Z,25.24
2023-04-22T22:20:20.667Z,25.33
2023-04-22T22:22:47.771Z,25.32
2023-04-22T22:25:17.251Z,25.18
2023-04-22T22:27:52.661Z,25.17
2023-04-22T22:30:23.330Z,25.08
2023-04-22T22:32:52.180Z,25.07
2023-04-22T22:35:20.934Z,25.14
2023-04-22T22:37:48.673Z,25.11
2023-04-22T22:40:15.611Z,25.08
2023-04-22T22:42:47.635Z,24.89
2023-04-22T22:45:15.301Z,25.08
2023-04-22T22:47:46.265Z,24.77
2023-04-22T22:50:16.472Z,24.95
2023-04-22T22:52:45.826Z,24.52
2023-04-22T22:55:13.960Z,24.53
2023-04-22T22:57:45.949Z,24.49
2023-04-22T23:00:14.908Z,24.68
2023-04-22T23:02:44.102Z,24.42
2023-04-22T23:05:12.096Z,24.61
2023-04-22T23:07:51.829Z,24.75
2023-04-22T23:10:21.214Z,24.34
2023-04-22T23:12:55.799Z,24.10
2023-04-22T23:15:29.805Z,24.12
2023-04-22T23:18:02.756Z,24.04
2023-04-22T23:20:33.749Z,23.31
2023-04-22T23:23:02.607Z,23.70
2023-04-22T23:25:30.351Z,23.94
2023-04-22T23:27:57.485Z,24.11
2023-04-22T23:30:25.342Z,23.87
2023-04-22T23:32:53.038Z,23.98
2023-04-22T23:35:21.488Z,23.98
2023-04-22T23:37:51.250Z,24.08
2023-04-22T23:40:19.487Z,24.10
2023-04-22T23:42:48.591Z,24.01
2023-04-22T23:45:16.178Z,24.08
2023-04-22T23:47:48.299Z,23.96
2023-04-22T23:50:16.643Z,23.95
2023-04-22T23:52:46.910Z,24.24
2023-04-22T23:55:16.200Z,24.12
2023-04-22T23:57:46.312Z,24.06
